createdAt,value
2022-10-17T00:02:05.376Z,5.03
2022-10-17T00:04:31.843Z,5.55
2022-10-17T00:06:58.285Z,5.55
2022-10-17T00:09:24.697Z,5.72
2022-10-17T00:11:51.087Z,5.72
2022-10-17T00:14:17.674Z,5.33
2022-10-17T00:16:44.099Z,5.50
2022-10-17T00:19:10.516Z,5.70
2022-10-17T00:21:36.985Z,5.70
2022-10-17T00:24:03.609Z,6.18
2022-10-17T00:26:30.143Z,5.60
2022-10-17T00:28:56.796Z,5.85
2022-10-17T00:31:24.860Z,5.63
2022-10-17T00:33:52.516Z,5.57
2022-10-17T00:36:22.099Z,5.53
2022-10-17T00:38:51.460Z,5.73
2022-10-17T00:41:21.240Z,5.85
2022-10-17T00:44:02.039Z,5.68
2022-10-17T00:46:34.106Z,5.68
2022-10-17T00:49:04.293Z,5.35
2022-10-17T00:51:36.682Z,5.40
2022-10-17T00:54:04.273Z,5.50
2022-10-17T00:56:31.155Z,5.40
2022-10-17T00:58:57.958Z,5.15
2022-10-17T01:01:24.711Z,5.47
2022-10-17T01:03:51.187Z,5.40
2022-10-17T01:06:17.609Z,5.03
2022-10-17T01:08:44.174Z,5.55
2022-10-17T01:11:25.504Z,5.55
2022-10-17T01:13:59.858Z,4.80
2022-10-17T01:16:48.993Z,5.70
2022-10-17T01:19:43.112Z,5.43
2022-10-17T01:22:18.872Z,5.40
2022-10-17T01:25:11.306Z,5.68
2022-10-17T01:27:49.047Z,4.95
2022-10-17T01:30:53.157Z,5.30
2022-10-17T01:33:41.415Z,5.25
2022-10-17T01:36:22.972Z,5.35
2022-10-17T01:38:53.602Z,5.15
2022-10-17T01:41:39.354Z,4.97
2022-10-17T01:44:13.970Z,5.03
2022-10-17T01:46:46.893Z,5.30
2022-10-17T01:49:17.349Z,5.72
2022-10-17T01:51:52.369Z,5.60
2022-10-17T01:54:25.273Z,5.38
2022-10-17T01:56:57.715Z,4.90
2022-10-17T01:59:29.194Z,4.97
2022-10-17T02:01:58.020Z,5.85
2022-10-17T02:04:25.964Z,4.90
2022-10-17T02:06:52.566Z,5.10
2022-10-17T02:09:27.222Z,4.57
2022-10-17T02:12:34.957Z,4.32
2022-10-17T02:15:17.313Z,4.55
2022-10-17T02:18:00.696Z,4.20
2022-10-17T02:20:37.592Z,4.65
2022-10-17T02:23:21.988Z,5.03
2022-10-17T02:25:54.224Z,5.47
2022-10-17T02:28:28.276Z,5.55
2022-10-17T02:31:10.228Z,5.70
2022-10-17T02:33:51.328Z,5.00
2022-10-17T02:36:23.201Z,4.53
2022-10-17T02:38:52.531Z,4.15
2022-10-17T02:41:20.124Z,4.20
2022-10-17T02:43:49.075Z,4.30
2022-10-17T02:46:21.062Z,3.83
2022-10-17T02:48:54.403Z,4.03
2022-10-17T02:51:35.279Z,4.00
2022-10-17T02:54:19.841Z,4.55
2022-10-17T02:56:53.203Z,4.32
2022-10-17T02:59:25.783Z,3.83
2022-10-17T03:01:52.935Z,3.37
2022-10-17T03:04:19.878Z,3.33
2022-10-17T03:06:48.018Z,3.83
2022-10-17T03:09:15.631Z,4.78
2022-10-17T03:11:42.190Z,5.10
2022-10-17T03:14:08.758Z,4.47
2022-10-17T03:16:35.224Z,4.47
2022-10-17T03:19:01.631Z,4.30
2022-10-17T03:21:28.063Z,4.30
2022-10-17T03:23:54.470Z,4.93
2022-10-17T03:26:21.023Z,8.23
2022-10-17T03:28:50.647Z,7.57
2022-10-17T03:31:19.905Z,5.93
2022-10-17T03:33:46.545Z,4.53
2022-10-17T03:36:15.666Z,4.25
2022-10-17T03:38:43.243Z,4.40
2022-10-17T03:41:10.165Z,4.88
2022-10-17T03:43:37.439Z,5.30
2022-10-17T03:46:04.081Z,5.20
2022-10-17T03:48:31.100Z,4.72
2022-10-17T03:51:02.602Z,5.10
2022-10-17T03:53:29.135Z,4.95
2022-10-17T03:55:56.081Z,5.45
2022-10-17T03:58:22.524Z,5.22
2022-10-17T04:00:48.952Z,5.13
2022-10-17T04:03:17.361Z,5.60
2022-10-17T04:05:43.937Z,4.93
2022-10-17T04:08:10.371Z,5.13
2022-10-17T04:10:36.756Z,5.47
2022-10-17T04:13:03.218Z,4.95
2022-10-17T04:15:29.731Z,5.10
2022-10-17T04:17:56.248Z,5.32
2022-10-17T04:20:22.746Z,4.80
2022-10-17T04:22:49.108Z,5.07
2022-10-17T04:25:15.576Z,5.78
2022-10-17T04:27:42.019Z,5.77
2022-10-17T04:30:08.802Z,5.05
2022-10-17T04:32:41.267Z,5.32
2022-10-17T04:35:08.229Z,4.75
2022-10-17T04:37:34.721Z,5.15
2022-10-17T04:40:01.185Z,5.37
2022-10-17T04:42:29.583Z,5.78
2022-10-17T04:44:56.175Z,4.93
2022-10-17T04:47:22.570Z,5.45
2022-10-17T04:49:48.964Z,5.75
2022-10-17T04:52:15.374Z,5.10
2022-10-17T04:54:41.805Z,5.55
2022-10-17T04:57:08.240Z,5.93
2022-10-17T04:59:34.627Z,5.47
2022-10-17T05:02:00.994Z,10.10
2022-10-17T05:04:27.456Z,11.50
2022-10-17T05:06:53.894Z,6.32
2022-10-17T05:09:20.286Z,6.32
2022-10-17T05:11:46.876Z,6.07
2022-10-17T05:14:13.263Z,6.53
2022-10-17T05:16:39.607Z,6.07
2022-10-17T05:19:06.095Z,6.20
2022-10-17T05:24:09.064Z,6.07
2022-10-17T05:26:35.698Z,6.28
2022-10-17T05:29:03.070Z,6.47
2022-10-17T05:31:30.697Z,5.82
2022-10-17T05:34:01.529Z,6.03
2022-10-17T05:36:28.195Z,5.68
2022-10-17T05:38:54.632Z,5.88
2022-10-17T05:41:21.631Z,5.80
2022-10-17T05:43:48.354Z,5.30
2022-10-17T05:46:14.853Z,5.50
2022-10-17T05:48:41.290Z,5.05
2022-10-17T05:51:09.366Z,5.00
2022-10-17T05:53:38.999Z,4.90
2022-10-17T05:56:07.904Z,5.43
2022-10-17T05:58:52.322Z,5.45
2022-10-17T06:01:20.969Z,5.07
2022-10-17T06:03:47.532Z,7.18
2022-10-17T06:06:14.815Z,4.90
2022-10-17T06:08:41.563Z,5.60
2022-10-17T06:11:10.220Z,5.47
2022-10-17T06:13:38.355Z,5.15
2022-10-17T06:16:05.360Z,4.80
2022-10-17T06:18:32.066Z,5.10
2022-10-17T06:21:06.644Z,4.50
2022-10-17T06:23:33.252Z,4.32
2022-10-17T06:26:01.645Z,4.10
2022-10-17T06:28:28.130Z,4.43
2022-10-17T06:30:54.720Z,4.33
2022-10-17T06:33:21.516Z,3.90
2022-10-17T06:35:55.029Z,4.40
2022-10-17T06:38:22.200Z,4.75
2022-10-17T06:40:48.806Z,4.40
2022-10-17T06:43:15.541Z,4.00
2022-10-17T06:45:42.194Z,7.32
2022-10-17T06:48:09.172Z,4.80
2022-10-17T06:50:35.579Z,3.90
2022-10-17T06:53:02.157Z,4.00
2022-10-17T06:55:28.659Z,3.90
2022-10-17T06:57:56.325Z,3.40
2022-10-17T07:00:23.489Z,3.58
2022-10-17T07:02:50.213Z,3.70
2022-10-17T07:05:17.215Z,3.47
2022-10-17T07:07:44.826Z,3.90
2022-10-17T07:10:12.904Z,3.45
2022-10-17T07:12:39.309Z,3.47
2022-10-17T07:15:06.239Z,3.45
2022-10-17T07:17:32.828Z,3.65
2022-10-17T07:19:59.346Z,4.73
2022-10-17T07:22:25.699Z,3.63
2022-10-17T07:24:52.114Z,3.20
2022-10-17T07:27:18.607Z,2.97
2022-10-17T07:29:44.950Z,3.33
2022-10-17T07:32:11.366Z,3.00
2022-10-17T07:34:37.763Z,2.88
2022-10-17T07:37:04.416Z,3.30
2022-10-17T07:39:30.788Z,3.10
2022-10-17T07:41:58.730Z,3.20
2022-10-17T07:44:25.220Z,3.47
2022-10-17T07:46:51.683Z,3.20
2022-10-17T07:49:18.101Z,2.90
2022-10-17T07:51:44.643Z,2.60
2022-10-17T07:54:11.089Z,3.13
2022-10-17T07:56:37.507Z,3.20
2022-10-17T07:59:06.762Z,3.13
2022-10-17T08:01:36.192Z,3.10
2022-10-17T08:04:02.679Z,3.42
2022-10-17T08:06:29.264Z,3.25
2022-10-17T08:08:55.711Z,3.30
2022-10-17T08:11:23.152Z,3.30
2022-10-17T08:13:49.629Z,3.53
2022-10-17T08:16:16.098Z,3.20
2022-10-17T08:18:43.647Z,3.30
2022-10-17T08:21:11.535Z,3.10
2022-10-17T08:23:38.103Z,3.60
2022-10-17T08:26:08.204Z,3.30
2022-10-17T08:28:36.248Z,3.60
2022-10-17T08:31:21.864Z,5.57
2022-10-17T08:33:50.470Z,3.83
2022-10-17T08:36:19.451Z,2.95
2022-10-17T08:38:50.316Z,3.10
2022-10-17T08:41:54.545Z,3.10
2022-10-17T08:45:05.168Z,3.25
2022-10-17T08:47:39.139Z,3.40
2022-10-17T08:50:10.950Z,2.83
2022-10-17T08:52:48.213Z,3.13
2022-10-17T08:55:32.280Z,3.10
2022-10-17T08:57:58.844Z,2.88
2022-10-17T09:00:28.542Z,3.30
2022-10-17T09:03:14.979Z,3.17
2022-10-17T09:05:49.710Z,3.00
2022-10-17T09:08:50.148Z,3.05
2022-10-17T09:11:31.662Z,3.00
2022-10-17T09:14:26.065Z,2.77
2022-10-17T09:17:15.725Z,3.20
2022-10-17T09:20:03.285Z,3.40
2022-10-17T09:22:37.604Z,3.00
2022-10-17T09:25:10.005Z,3.20
2022-10-17T09:27:48.185Z,2.90
2022-10-17T09:30:44.120Z,2.95
2022-10-17T09:33:23.375Z,3.08
2022-10-17T09:36:04.958Z,2.70
2022-10-17T09:38:39.731Z,3.00
2022-10-17T09:41:39.145Z,2.50
2022-10-17T09:44:14.301Z,2.35
2022-10-17T09:46:44.936Z,2.40
2022-10-17T09:49:17.765Z,2.47
2022-10-17T09:51:44.535Z,2.45
2022-10-17T09:54:23.995Z,2.50
2022-10-17T09:57:17.840Z,2.97
2022-10-17T09:59:56.574Z,2.70
2022-10-17T10:02:24.770Z,2.60
2022-10-17T10:05:06.474Z,2.55
2022-10-17T10:07:37.909Z,2.40
2022-10-17T10:10:08.356Z,2.10
2022-10-17T10:12:39.298Z,2.50
2022-10-17T10:15:33.881Z,2.20
2022-10-17T10:18:00.396Z,2.20
2022-10-17T10:20:28.763Z,2.10
2022-10-17T10:23:17.573Z,1.83
2022-10-17T10:25:58.966Z,2.33
2022-10-17T10:28:33.098Z,2.50
2022-10-17T10:31:04.645Z,2.50
2022-10-17T10:33:34.565Z,2.37
2022-10-17T10:36:04.087Z,2.30
2022-10-17T10:38:32.677Z,2.00
2022-10-17T10:41:11.506Z,2.20
2022-10-17T10:43:45.262Z,2.10
2022-10-17T10:46:20.156Z,2.10
2022-10-17T10:48:59.637Z,2.60
2022-10-17T10:51:44.204Z,2.28
2022-10-17T10:54:23.645Z,2.22
2022-10-17T10:56:54.007Z,2.55
2022-10-17T10:59:41.088Z,2.27
2022-10-17T11:02:07.385Z,2.30
2022-10-17T11:04:57.098Z,2.22
2022-10-17T11:07:30.552Z,2.28
2022-10-17T11:10:00.211Z,2.38
2022-10-17T11:12:41.660Z,2.37
2022-10-17T11:15:43.421Z,2.50
2022-10-17T11:18:26.701Z,2.85
2022-10-17T11:21:10.492Z,2.15
2022-10-17T11:23:47.664Z,2.22
2022-10-17T11:26:27.934Z,2.43
2022-10-17T11:28:55.623Z,2.28
2022-10-17T11:31:25.190Z,2.20
2022-10-17T11:34:00.306Z,1.90
2022-10-17T11:36:31.224Z,2.08
2022-10-17T11:39:10.532Z,1.97
2022-10-17T11:41:43.043Z,2.28
2022-10-17T11:44:31.562Z,2.15
2022-10-17T11:47:04.858Z,2.00
2022-10-17T11:53:12.266Z,2.33
2022-10-17T11:55:42.306Z,2.45
2022-10-17T11:58:32.609Z,2.55
2022-10-17T12:01:08.177Z,2.50
2022-10-17T12:04:13.821Z,2.20
2022-10-17T12:07:01.093Z,2.10
2022-10-17T12:09:59.984Z,2.15
2022-10-17T12:12:29.596Z,2.33
2022-10-17T12:15:26.096Z,2.10
2022-10-17T12:18:03.359Z,2.10
2022-10-17T12:20:37.604Z,2.23
2022-10-17T12:23:12.767Z,2.50
2022-10-17T12:25:51.838Z,2.22
2022-10-17T12:28:42.219Z,2.45
2022-10-17T12:31:13.628Z,2.47
2022-10-17T12:33:45.903Z,2.37
2022-10-17T12:36:18.617Z,2.30
2022-10-17T12:38:50.160Z,2.55
2022-10-17T12:41:37.216Z,2.45
2022-10-17T12:44:28.200Z,2.33
2022-10-17T12:47:10.605Z,2.10
2022-10-17T12:49:41.388Z,2.35
2022-10-17T12:52:31.130Z,2.50
2022-10-17T12:55:12.691Z,1.90
2022-10-17T12:57:51.641Z,2.50
2022-10-17T13:00:20.838Z,2.30
2022-10-17T13:02:49.835Z,2.40
2022-10-17T13:05:32.916Z,2.20
2022-10-17T13:08:02.402Z,2.60
2022-10-17T13:10:32.052Z,2.47
2022-10-17T13:13:13.020Z,2.83
2022-10-17T13:15:39.581Z,2.72
2022-10-17T13:18:06.070Z,2.30
2022-10-17T13:20:32.856Z,2.60
2022-10-17T13:22:59.778Z,2.80
2022-10-17T13:25:27.587Z,2.40
2022-10-17T13:28:06.362Z,2.88
2022-10-17T13:30:35.122Z,2.65
2022-10-17T13:33:02.461Z,2.65
2022-10-17T13:36:00.110Z,2.50
2022-10-17T13:38:25.558Z,2.73
2022-10-17T13:40:57.921Z,2.60
2022-10-17T13:43:28.318Z,2.67
2022-10-17T13:46:13.679Z,2.45
2022-10-17T13:48:49.378Z,2.50
2022-10-17T13:51:16.121Z,2.50
2022-10-17T13:53:44.489Z,2.72
2022-10-17T13:56:29.900Z,2.50
2022-10-17T13:59:09.231Z,2.65
2022-10-17T14:01:38.178Z,2.65
2022-10-17T14:04:10.417Z,2.70
2022-10-17T14:06:47.598Z,2.70
2022-10-17T14:09:25.043Z,2.42
2022-10-17T14:12:19.255Z,2.50
2022-10-17T14:15:09.631Z,2.67
2022-10-17T14:17:38.540Z,2.50
2022-10-17T14:20:40.801Z,3.03
2022-10-17T14:23:21.047Z,2.60
2022-10-17T14:25:41.263Z,2.70
2022-10-17T14:28:09.437Z,2.72
2022-10-17T14:30:55.582Z,2.90
2022-10-17T14:33:24.675Z,2.88
2022-10-17T14:35:52.789Z,3.42
2022-10-17T14:38:20.648Z,3.13
2022-10-17T14:41:44.250Z,4.05
2022-10-17T14:44:30.639Z,3.27
2022-10-17T14:47:18.240Z,3.78
2022-10-17T14:49:51.772Z,3.40
2022-10-17T14:52:18.990Z,3.42
2022-10-17T14:54:49.945Z,3.55
2022-10-17T14:57:22.480Z,3.10
2022-10-17T14:59:54.347Z,3.63
2022-10-17T15:02:25.888Z,3.80
2022-10-17T15:04:52.962Z,3.17
2022-10-17T15:07:21.115Z,3.60
2022-10-17T15:09:49.473Z,3.80
2022-10-17T15:12:19.222Z,3.55
2022-10-17T15:14:47.792Z,3.30
2022-10-17T15:17:29.015Z,3.65
2022-10-17T15:19:56.648Z,3.50
2022-10-17T15:22:24.361Z,3.13
2022-10-17T15:24:50.738Z,3.28
2022-10-17T15:27:19.494Z,3.80
2022-10-17T15:29:46.826Z,3.22
2022-10-17T15:32:13.636Z,4.75
2022-10-17T15:34:40.092Z,4.67
2022-10-17T15:37:14.394Z,3.50
2022-10-17T15:39:40.823Z,4.22
2022-10-17T15:42:12.082Z,4.43
2022-10-17T15:44:38.618Z,3.65
2022-10-17T15:47:06.326Z,5.93
2022-10-17T15:49:33.902Z,17.50
2022-10-17T15:52:00.286Z,4.70
2022-10-17T15:54:26.647Z,3.50
2022-10-17T15:56:55.128Z,7.30
2022-10-17T15:59:28.395Z,3.60
2022-10-17T16:01:54.802Z,3.85
2022-10-17T16:04:21.573Z,4.03
2022-10-17T16:06:49.179Z,4.10
2022-10-17T16:09:15.571Z,4.93
2022-10-17T16:11:43.455Z,3.33
2022-10-17T16:14:13.245Z,3.63
2022-10-17T16:16:40.175Z,4.00
2022-10-17T16:19:06.765Z,4.00
2022-10-17T16:21:35.785Z,4.00
2022-10-17T16:24:02.708Z,3.87
2022-10-17T16:26:29.433Z,4.30
2022-10-17T16:28:57.803Z,4.30
2022-10-17T16:31:30.783Z,4.43
2022-10-17T16:33:59.255Z,4.45
2022-10-17T16:36:26.318Z,4.23
2022-10-17T16:38:54.132Z,4.22
2022-10-17T16:41:25.326Z,4.47
2022-10-17T16:43:53.397Z,4.30
2022-10-17T16:46:20.758Z,4.80
2022-10-17T16:48:47.577Z,4.90
2022-10-17T16:51:14.952Z,4.28
2022-10-17T16:53:44.734Z,4.65
2022-10-17T16:56:13.400Z,4.30
2022-10-17T16:58:41.067Z,4.60
2022-10-17T17:01:12.983Z,4.57
2022-10-17T17:03:41.770Z,6.63
2022-10-17T17:06:09.389Z,7.85
2022-10-17T17:08:38.490Z,5.70
2022-10-17T17:11:09.935Z,7.82
2022-10-17T17:13:36.846Z,5.60
2022-10-17T17:16:13.565Z,31.52
2022-10-17T17:18:41.015Z,13.93
2022-10-17T17:21:09.442Z,6.38
2022-10-17T17:23:38.027Z,6.05
2022-10-17T17:26:24.266Z,6.07
2022-10-17T17:28:51.371Z,8.15
2022-10-17T17:31:24.164Z,7.15
2022-10-17T17:33:51.592Z,5.50
2022-10-17T17:36:21.554Z,6.07
2022-10-17T17:38:49.391Z,5.90
2022-10-17T17:41:18.871Z,6.72
2022-10-17T17:43:46.861Z,6.35
2022-10-17T17:46:15.769Z,10.63
2022-10-17T17:48:44.987Z,6.47
2022-10-17T17:51:13.858Z,5.13
2022-10-17T17:53:40.988Z,5.03
2022-10-17T17:56:15.629Z,5.30
2022-10-17T17:58:45.620Z,5.82
2022-10-17T18:01:19.833Z,5.22
2022-10-17T18:03:46.987Z,5.23
2022-10-17T18:06:13.841Z,5.18
2022-10-17T18:08:43.434Z,5.47
2022-10-17T18:11:10.114Z,5.22
2022-10-17T18:13:36.652Z,5.80
2022-10-17T18:16:03.350Z,5.60
2022-10-17T18:18:30.438Z,5.68
2022-10-17T18:21:00.852Z,6.20
2022-10-17T18:23:27.259Z,4.13
2022-10-17T18:25:58.338Z,4.63
2022-10-17T18:28:25.042Z,5.10
2022-10-17T18:30:51.585Z,5.20
2022-10-17T18:33:17.987Z,5.85
2022-10-17T18:35:44.511Z,7.10
2022-10-17T18:38:11.141Z,6.70
2022-10-17T18:40:37.641Z,5.43
2022-10-17T18:43:04.241Z,5.57
2022-10-17T18:45:30.980Z,5.68
2022-10-17T18:47:57.827Z,5.60
2022-10-17T18:50:25.121Z,4.65
2022-10-17T18:52:51.653Z,4.40
2022-10-17T18:55:20.393Z,4.03
2022-10-17T18:57:50.621Z,5.13
2022-10-17T19:00:17.456Z,5.03
2022-10-17T19:02:44.079Z,5.30
2022-10-17T19:05:10.466Z,5.53
2022-10-17T19:07:37.024Z,5.57
2022-10-17T19:10:03.650Z,5.63
2022-10-17T19:12:30.171Z,5.53
2022-10-17T19:14:57.378Z,5.00
2022-10-17T19:17:23.818Z,4.90
2022-10-17T19:19:52.158Z,5.07
2022-10-17T19:22:18.752Z,5.72
2022-10-17T19:24:45.211Z,5.47
2022-10-17T19:27:12.202Z,6.10
2022-10-17T19:29:43.300Z,5.33
2022-10-17T19:32:15.589Z,4.88
2022-10-17T19:34:44.535Z,5.45
2022-10-17T19:37:10.982Z,6.20
2022-10-17T19:39:37.537Z,6.60
2022-10-17T19:42:06.757Z,6.10
2022-10-17T19:44:33.926Z,4.97
2022-10-17T19:47:00.311Z,4.97
2022-10-17T19:49:26.878Z,6.65
2022-10-17T19:51:53.371Z,6.07
2022-10-17T19:54:20.310Z,6.30
2022-10-17T19:56:46.870Z,5.10
2022-10-17T19:59:14.952Z,4.75
2022-10-17T20:01:41.545Z,4.85
2022-10-17T20:04:09.262Z,5.03
2022-10-17T20:06:35.890Z,4.43
2022-10-17T20:09:03.211Z,4.75
2022-10-17T20:11:30.494Z,4.95
2022-10-17T20:13:59.019Z,5.63
2022-10-17T20:16:29.657Z,6.00
2022-10-17T20:19:02.382Z,5.20
2022-10-17T20:21:34.815Z,6.03
2022-10-17T20:24:01.933Z,6.65
2022-10-17T20:26:44.635Z,9.60
2022-10-17T20:29:14.967Z,8.20
2022-10-17T20:31:43.272Z,5.53
2022-10-17T20:34:13.569Z,5.93
2022-10-17T20:36:40.660Z,4.97
2022-10-17T20:39:07.559Z,5.72
2022-10-17T20:41:34.532Z,5.72
2022-10-17T20:44:00.990Z,5.37
2022-10-17T20:46:36.729Z,4.90
2022-10-17T20:49:05.187Z,5.20
2022-10-17T20:51:31.902Z,5.30
2022-10-17T20:53:58.557Z,5.38
2022-10-17T20:56:29.186Z,5.57
2022-10-17T20:58:58.960Z,4.90
2022-10-17T21:01:26.947Z,5.63
2022-10-17T21:03:54.022Z,5.65
2022-10-17T21:06:21.376Z,6.03
2022-10-17T21:08:48.471Z,5.90
2022-10-17T21:11:18.172Z,5.82
2022-10-17T21:13:46.077Z,5.00
2022-10-17T21:16:15.185Z,5.10
2022-10-17T21:18:42.429Z,5.00
2022-10-17T21:21:18.527Z,5.67
2022-10-17T21:23:46.990Z,5.18
2022-10-17T21:26:13.942Z,5.28
2022-10-17T21:28:41.606Z,5.43
2022-10-17T21:31:18.802Z,5.50
2022-10-17T21:33:54.342Z,5.63
2022-10-17T21:36:21.783Z,5.60
2022-10-17T21:38:49.690Z,5.75
2022-10-17T21:41:19.368Z,5.25
2022-10-17T21:43:46.780Z,5.60
2022-10-17T21:46:16.267Z,5.70
2022-10-17T21:48:43.764Z,5.20
2022-10-17T21:51:12.660Z,5.13
2022-10-17T21:53:39.360Z,5.18
2022-10-17T21:56:09.301Z,5.40
2022-10-17T21:58:35.914Z,5.30
2022-10-17T22:01:11.400Z,5.07
2022-10-17T22:03:44.094Z,5.75
2022-10-17T22:09:01.972Z,5.32
2022-10-17T22:11:31.581Z,5.33
2022-10-17T22:14:05.431Z,5.63
2022-10-17T22:16:32.096Z,5.20
2022-10-17T22:19:03.233Z,5.10
2022-10-17T22:21:32.565Z,5.00
2022-10-17T22:24:01.842Z,5.47
2022-10-17T22:26:31.000Z,5.53
2022-10-17T22:28:58.067Z,5.50
2022-10-17T22:31:24.514Z,5.88
2022-10-17T22:33:51.365Z,5.72
2022-10-17T22:36:17.841Z,6.20
2022-10-17T22:38:44.237Z,5.25
2022-10-17T22:41:10.639Z,5.30
2022-10-17T22:43:37.132Z,5.00
2022-10-17T22:46:05.133Z,5.47
2022-10-17T22:48:31.872Z,5.70
2022-10-17T22:50:59.741Z,5.25
2022-10-17T22:53:27.004Z,5.70
2022-10-17T22:55:55.392Z,5.18
2022-10-17T22:58:22.262Z,4.65
2022-10-17T23:00:50.257Z,5.23
2022-10-17T23:03:17.693Z,5.53
2022-10-17T23:05:44.685Z,5.20
2022-10-17T23:08:12.270Z,5.47
2022-10-17T23:10:39.468Z,5.85
2022-10-17T23:13:05.997Z,5.80
2022-10-17T23:15:33.678Z,5.55
2022-10-17T23:18:01.537Z,5.47
2022-10-17T23:20:29.557Z,5.80
2022-10-17T23:22:56.931Z,5.22
2022-10-17T23:25:23.656Z,5.47
2022-10-17T23:27:50.201Z,5.22
2022-10-17T23:30:17.280Z,5.32
2022-10-17T23:32:43.991Z,5.80
2022-10-17T23:35:10.570Z,5.43
2022-10-17T23:37:38.044Z,5.13
2022-10-17T23:40:05.714Z,5.78
2022-10-17T23:42:32.684Z,5.78
2022-10-17T23:44:59.069Z,5.63
2022-10-17T23:47:25.531Z,5.63
2022-10-17T23:49:51.938Z,6.40
2022-10-17T23:52:18.381Z,5.72
2022-10-17T23:54:44.811Z,5.80
2022-10-17T23:57:11.192Z,5.88
2022-10-17T23:59:37.542Z,6.00
